createdAt,value
2018-08-19T00:00:26.618Z,4.20
2018-08-19T00:02:58.734Z,4.33
2018-08-19T00:05:27.141Z,4.95
2018-08-19T00:07:55.573Z,4.65
2018-08-19T00:10:38.417Z,5.40
2018-08-19T00:13:08.101Z,4.85
2018-08-19T00:15:37.286Z,4.37
2018-08-19T00:18:07.374Z,4.50
2018-08-19T00:20:35.720Z,3.95
2018-08-19T00:23:04.295Z,5.20
2018-08-19T00:25:42.607Z,5.42
2018-08-19T00:28:12.661Z,5.35
2018-08-19T00:30:40.981Z,5.35
2018-08-19T00:33:09.906Z,4.58
2018-08-19T00:35:38.273Z,4.30
2018-08-19T00:38:11.143Z,4.92
2018-08-19T00:40:39.992Z,4.17
2018-08-19T00:43:08.397Z,5.53
2018-08-19T00:45:36.957Z,5.70
2018-08-19T00:48:05.364Z,5.17
2018-08-19T00:50:33.675Z,4.65
2018-08-19T00:53:01.992Z,4.35
2018-08-19T00:55:36.534Z,4.05
2018-08-19T00:58:12.472Z,4.33
2018-08-19T01:00:40.820Z,3.72
2018-08-19T01:03:10.143Z,3.92
2018-08-19T01:05:38.528Z,4.90
2018-08-19T01:08:07.059Z,4.08
2018-08-19T01:10:35.347Z,4.85
2018-08-19T01:13:03.727Z,4.30
2018-08-19T01:15:32.168Z,3.70
2018-08-19T01:18:00.541Z,4.97
2018-08-19T01:20:28.843Z,4.92
2018-08-19T01:22:57.165Z,4.33
2018-08-19T01:25:25.541Z,4.33
2018-08-19T01:27:53.962Z,5.45
2018-08-19T01:30:25.739Z,4.95
2018-08-19T01:32:54.106Z,5.33
2018-08-19T01:35:32.477Z,4.03
2018-08-19T01:38:00.880Z,4.42
2018-08-19T01:40:29.220Z,5.03
2018-08-19T01:42:57.532Z,4.90
2018-08-19T01:45:25.982Z,4.10
2018-08-19T01:47:54.344Z,4.37
2018-08-19T01:50:22.658Z,4.85
2018-08-19T01:52:51.123Z,4.78
2018-08-19T01:55:19.729Z,4.30
2018-08-19T01:57:50.867Z,4.53
2018-08-19T02:00:19.632Z,5.22
2018-08-19T02:02:57.522Z,4.30
2018-08-19T02:05:26.240Z,4.70
2018-08-19T02:07:56.987Z,4.15
2018-08-19T02:10:25.850Z,5.25
2018-08-19T02:12:55.349Z,4.30
2018-08-19T02:15:24.870Z,4.83
2018-08-19T02:17:59.169Z,4.50
2018-08-19T02:20:34.767Z,5.22
2018-08-19T02:23:10.748Z,4.10
2018-08-19T02:25:42.198Z,4.85
2018-08-19T02:28:10.986Z,4.60
2018-08-19T02:31:02.421Z,4.72
2018-08-19T02:33:33.146Z,5.15
2018-08-19T02:36:03.469Z,4.92
2018-08-19T02:38:32.045Z,4.70
2018-08-19T02:41:00.356Z,4.37
2018-08-19T02:43:28.818Z,4.40
2018-08-19T02:45:57.113Z,4.28
2018-08-19T02:48:41.070Z,4.47
2018-08-19T02:51:10.706Z,4.12
2018-08-19T02:53:39.018Z,3.90
2018-08-19T02:56:07.361Z,4.30
2018-08-19T02:58:35.633Z,5.97
2018-08-19T03:01:03.975Z,4.80
2018-08-19T03:03:32.250Z,4.20
2018-08-19T03:06:01.910Z,4.90
2018-08-19T03:08:31.000Z,4.90
2018-08-19T03:10:59.460Z,4.37
2018-08-19T03:13:27.912Z,3.90
2018-08-19T03:15:56.852Z,3.95
2018-08-19T03:18:25.495Z,4.62
2018-08-19T03:20:53.826Z,4.45
2018-08-19T03:23:22.171Z,4.42
2018-08-19T03:25:50.524Z,4.78
2018-08-19T03:28:18.826Z,5.17
2018-08-19T03:30:53.321Z,4.33
2018-08-19T03:33:21.634Z,5.87
2018-08-19T03:35:50.027Z,4.78
2018-08-19T03:38:18.343Z,4.72
2018-08-19T03:40:46.647Z,4.37
2018-08-19T03:43:14.978Z,4.65
2018-08-19T03:45:43.317Z,4.78
2018-08-19T03:48:11.673Z,5.20
2018-08-19T03:50:40.200Z,4.85
2018-08-19T03:53:08.512Z,4.55
2018-08-19T03:55:37.918Z,5.00
2018-08-19T03:58:08.346Z,5.30
2018-08-19T04:00:38.491Z,5.20
2018-08-19T04:03:14.426Z,4.80
2018-08-19T04:05:46.262Z,5.25
2018-08-19T04:08:16.014Z,5.40
2018-08-19T04:10:47.541Z,4.75
2018-08-19T04:13:41.581Z,5.72
2018-08-19T04:16:12.757Z,5.10
2018-08-19T04:18:45.473Z,5.90
2018-08-19T04:21:17.701Z,4.87
2018-08-19T04:23:49.889Z,5.50
2018-08-19T04:26:19.524Z,4.85
2018-08-19T04:28:48.417Z,4.60
2018-08-19T04:31:22.077Z,5.90
2018-08-19T04:33:51.634Z,5.25
2018-08-19T04:36:25.347Z,5.25
2018-08-19T04:38:54.541Z,5.05
2018-08-19T04:41:23.702Z,5.33
2018-08-19T04:43:54.351Z,4.95
2018-08-19T04:46:23.938Z,6.05
2018-08-19T04:48:53.961Z,5.85
2018-08-19T04:51:23.827Z,5.25
2018-08-19T04:53:56.311Z,4.80
2018-08-19T04:56:25.437Z,6.05
2018-08-19T04:58:55.406Z,4.85
2018-08-19T05:01:24.406Z,5.40
2018-08-19T05:03:54.858Z,5.58
2018-08-19T05:06:23.392Z,4.65
2018-08-19T05:08:51.858Z,4.62
2018-08-19T05:11:21.291Z,5.05
2018-08-19T05:13:50.093Z,5.50
2018-08-19T05:16:18.813Z,4.83
2018-08-19T05:18:52.660Z,7.00
2018-08-19T05:21:27.726Z,6.50
2018-08-19T05:23:57.290Z,6.17
2018-08-19T05:26:26.130Z,6.67
2018-08-19T05:29:06.174Z,5.12
2018-08-19T05:31:39.012Z,7.05
2018-08-19T05:34:12.971Z,6.75
2018-08-19T05:36:41.712Z,6.87
2018-08-19T05:39:10.643Z,6.87
2018-08-19T05:41:38.976Z,6.67
2018-08-19T05:44:07.914Z,6.85
2018-08-19T05:46:37.179Z,8.65
2018-08-19T05:49:06.534Z,6.17
2018-08-19T05:51:38.981Z,8.15
2018-08-19T05:54:08.991Z,6.87
2018-08-19T05:56:38.758Z,6.30
2018-08-19T05:59:07.318Z,7.25
2018-08-19T06:01:37.315Z,5.90
2018-08-19T06:04:05.983Z,8.03
2018-08-19T06:06:35.262Z,6.40
2018-08-19T06:09:04.593Z,7.45
2018-08-19T06:11:33.561Z,5.92
2018-08-19T06:14:02.457Z,6.55
2018-08-19T06:16:31.759Z,6.25
2018-08-19T06:19:01.539Z,6.70
2018-08-19T06:21:31.853Z,7.42
2018-08-19T06:24:00.642Z,7.00
2018-08-19T06:26:34.843Z,7.60
2018-08-19T06:29:03.659Z,8.33
2018-08-19T06:31:32.459Z,7.53
2018-08-19T06:34:01.044Z,6.17
2018-08-19T06:36:29.451Z,8.25
2018-08-19T06:38:57.765Z,8.63
2018-08-19T06:41:26.517Z,5.75
2018-08-19T06:43:54.765Z,9.45
2018-08-19T06:46:23.021Z,6.92
2018-08-19T06:48:51.344Z,8.35
2018-08-19T06:51:19.664Z,8.03
2018-08-19T06:53:48.716Z,10.15
2018-08-19T06:56:17.075Z,7.55
2018-08-19T06:58:45.441Z,8.13
2018-08-19T07:01:13.737Z,9.40
2018-08-19T07:03:46.805Z,7.85
2018-08-19T07:06:15.436Z,7.85
2018-08-19T07:08:43.690Z,8.53
2018-08-19T07:11:12.061Z,7.92
2018-08-19T07:13:40.347Z,8.08
2018-08-19T07:16:08.638Z,8.10
2018-08-19T07:18:37.066Z,8.23
2018-08-19T07:21:05.462Z,8.25
2018-08-19T07:23:34.572Z,9.00
2018-08-19T07:26:02.894Z,8.68
2018-08-19T07:28:31.172Z,10.72
2018-08-19T07:30:59.443Z,9.08
2018-08-19T07:33:28.563Z,11.22
2018-08-19T07:35:56.851Z,12.03
2018-08-19T07:38:25.143Z,11.48
2018-08-19T07:40:54.574Z,14.28
2018-08-19T07:43:22.834Z,10.78
2018-08-19T07:45:51.263Z,10.50
2018-08-19T07:48:19.617Z,13.60
2018-08-19T07:50:47.909Z,13.05
2018-08-19T07:53:16.189Z,14.55
2018-08-19T07:55:44.704Z,12.00
2018-08-19T07:58:13.007Z,14.45
2018-08-19T08:00:41.915Z,12.15
2018-08-19T08:03:10.334Z,12.90
2018-08-19T08:05:46.961Z,13.83
2018-08-19T08:08:15.289Z,12.03
2018-08-19T08:10:43.630Z,11.35
2018-08-19T08:13:13.022Z,10.95
2018-08-19T08:15:47.015Z,11.20
2018-08-19T08:18:15.435Z,10.80
2018-08-19T08:20:43.997Z,12.35
2018-08-19T08:23:18.243Z,9.83
2018-08-19T08:25:47.958Z,10.20
2018-08-19T08:28:16.860Z,10.23
2018-08-19T08:30:45.490Z,10.65
2018-08-19T08:33:13.870Z,9.48
2018-08-19T08:35:47.918Z,9.93
2018-08-19T08:38:17.810Z,10.88
2018-08-19T08:40:47.167Z,9.70
2018-08-19T08:43:15.398Z,10.80
2018-08-19T08:45:44.168Z,10.03
2018-08-19T08:48:12.512Z,9.73
2018-08-19T08:50:40.816Z,9.38
2018-08-19T08:53:09.461Z,9.40
2018-08-19T08:55:37.933Z,10.18
2018-08-19T08:58:06.957Z,10.03
2018-08-19T09:00:35.855Z,8.40
2018-08-19T09:03:04.588Z,8.13
2018-08-19T09:05:33.084Z,7.90
2018-08-19T09:08:01.594Z,9.75
2018-08-19T09:10:30.103Z,7.12
2018-08-19T09:12:58.595Z,8.20
2018-08-19T09:15:27.416Z,8.58
2018-08-19T09:17:56.029Z,8.80
2018-08-19T09:20:24.901Z,8.03
2018-08-19T09:22:55.222Z,7.17
2018-08-19T09:25:23.604Z,9.15
2018-08-19T09:27:52.180Z,7.05
2018-08-19T09:30:29.977Z,6.78
2018-08-19T09:32:59.548Z,6.62
2018-08-19T09:35:32.464Z,6.17
2018-08-19T09:38:06.242Z,6.40
2018-08-19T09:40:35.428Z,7.12
2018-08-19T09:43:03.878Z,6.17
2018-08-19T09:45:32.622Z,5.10
2018-08-19T09:48:02.828Z,6.03
2018-08-19T09:50:34.717Z,5.90
2018-08-19T09:53:05.290Z,5.08
2018-08-19T09:55:44.293Z,5.12
2018-08-19T09:58:21.675Z,4.30
2018-08-19T10:00:56.151Z,3.62
2018-08-19T10:03:24.901Z,3.60
2018-08-19T10:05:54.109Z,3.12
2018-08-19T10:08:24.707Z,2.98
2018-08-19T10:10:53.060Z,3.55
2018-08-19T10:13:21.411Z,3.15
2018-08-19T10:15:51.240Z,3.95
2018-08-19T10:18:20.248Z,4.25
2018-08-19T10:20:48.778Z,4.37
2018-08-19T10:23:17.007Z,4.72
2018-08-19T10:25:45.720Z,4.47
2018-08-19T10:28:14.069Z,5.47
2018-08-19T10:30:48.374Z,4.92
2018-08-19T10:33:18.091Z,5.12
2018-08-19T10:35:47.813Z,5.20
2018-08-19T10:38:16.295Z,5.28
2018-08-19T10:41:08.839Z,4.60
2018-08-19T10:43:37.410Z,3.85
2018-08-19T10:46:12.489Z,4.33
2018-08-19T10:48:41.260Z,4.53
2018-08-19T10:51:10.496Z,4.33
2018-08-19T10:53:39.680Z,4.25
2018-08-19T10:56:08.148Z,4.00
2018-08-19T10:58:37.746Z,4.15
2018-08-19T11:01:13.307Z,4.05
2018-08-19T11:03:42.254Z,3.90
2018-08-19T11:06:13.326Z,3.83
2018-08-19T11:08:50.433Z,3.12
2018-08-19T11:11:19.229Z,3.35
2018-08-19T11:13:48.811Z,3.67
2018-08-19T11:16:18.409Z,3.50
2018-08-19T11:18:49.272Z,2.65
2018-08-19T11:21:32.052Z,3.25
2018-08-19T11:24:01.125Z,2.52
2018-08-19T11:26:29.596Z,2.90
2018-08-19T11:29:03.363Z,3.02
2018-08-19T11:31:33.886Z,3.27
2018-08-19T11:34:08.498Z,3.22
2018-08-19T11:36:42.014Z,2.95
2018-08-19T11:39:12.228Z,3.00
2018-08-19T11:41:40.586Z,2.75
2018-08-19T11:44:14.018Z,3.10
2018-08-19T11:46:42.326Z,3.08
2018-08-19T11:49:12.786Z,2.92
2018-08-19T11:51:51.009Z,3.60
2018-08-19T11:54:20.261Z,5.12
2018-08-19T11:56:59.319Z,5.20
2018-08-19T11:59:33.090Z,6.72
2018-08-19T12:02:02.117Z,6.22
2018-08-19T12:04:30.895Z,7.22
2018-08-19T12:06:59.560Z,7.67
2018-08-19T12:09:28.369Z,6.62
2018-08-19T12:12:00.027Z,6.00
2018-08-19T12:14:35.482Z,5.87
2018-08-19T12:17:11.552Z,6.28
2018-08-19T12:19:44.154Z,6.17
2018-08-19T12:22:14.209Z,7.20
2018-08-19T12:24:48.233Z,7.00
2018-08-19T12:27:21.007Z,7.33
2018-08-19T12:29:50.046Z,6.50
2018-08-19T12:32:26.376Z,6.17
2018-08-19T12:35:00.812Z,5.80
2018-08-19T12:37:31.698Z,6.30
2018-08-19T12:40:19.284Z,4.87
2018-08-19T12:42:54.628Z,5.78
2018-08-19T12:45:23.986Z,5.00
2018-08-19T12:47:53.202Z,4.95
2018-08-19T12:50:24.760Z,6.70
2018-08-19T12:52:54.068Z,6.87
2018-08-19T12:55:26.723Z,7.33
2018-08-19T12:58:00.996Z,6.67
2018-08-19T13:00:29.993Z,5.40
2018-08-19T13:02:58.725Z,5.75
2018-08-19T13:05:28.919Z,6.40
2018-08-19T13:07:57.514Z,5.95
2018-08-19T13:10:34.410Z,6.15
2018-08-19T13:13:02.789Z,6.50
2018-08-19T13:15:31.750Z,5.83
2018-08-19T13:18:00.081Z,5.30
2018-08-19T13:20:28.541Z,4.20
2018-08-19T13:23:00.115Z,3.90
2018-08-19T13:25:29.478Z,3.80
2018-08-19T13:27:57.754Z,3.30
2018-08-19T13:30:26.809Z,3.90
2018-08-19T13:32:55.178Z,3.70
2018-08-19T13:35:24.645Z,3.58
2018-08-19T13:37:53.092Z,3.47
2018-08-19T13:40:21.813Z,4.10
2018-08-19T13:42:51.461Z,3.90
2018-08-19T13:45:20.956Z,3.75
2018-08-19T13:47:54.266Z,3.65
2018-08-19T13:50:22.696Z,3.90
2018-08-19T13:52:51.187Z,4.05
2018-08-19T13:55:20.403Z,3.62
2018-08-19T13:57:49.012Z,3.50
2018-08-19T14:00:18.577Z,4.12
2018-08-19T14:02:48.619Z,4.87
2018-08-19T14:05:17.542Z,4.75
2018-08-19T14:07:45.814Z,4.17
2018-08-19T14:10:15.883Z,4.78
2018-08-19T14:12:44.454Z,4.58
2018-08-19T14:15:12.722Z,4.60
2018-08-19T14:17:41.005Z,3.90
2018-08-19T14:20:10.624Z,3.98
2018-08-19T14:22:39.180Z,3.52
2018-08-19T14:25:08.906Z,4.45
2018-08-19T14:27:37.326Z,4.15
2018-08-19T14:32:46.521Z,3.35
2018-08-19T14:35:14.776Z,4.37
2018-08-19T14:37:43.154Z,4.17
2018-08-19T14:40:15.079Z,4.30
2018-08-19T14:42:43.325Z,4.10
2018-08-19T14:45:12.489Z,4.20
2018-08-19T14:47:40.736Z,4.65
2018-08-19T14:50:11.618Z,4.70
2018-08-19T14:52:39.878Z,3.90
2018-08-19T14:55:08.669Z,4.22
2018-08-19T14:57:37.136Z,4.05
2018-08-19T15:00:08.568Z,4.30
2018-08-19T15:02:37.240Z,4.67
2018-08-19T15:05:05.702Z,4.42
2018-08-19T15:07:33.960Z,3.92
2018-08-19T15:10:02.330Z,4.17
2018-08-19T15:12:30.578Z,3.47
2018-08-19T15:15:00.051Z,4.12
2018-08-19T15:17:28.498Z,4.03
2018-08-19T15:20:00.212Z,3.62
2018-08-19T15:22:28.640Z,4.05
2018-08-19T15:24:56.978Z,4.05
2018-08-19T15:27:25.360Z,4.30
2018-08-19T15:29:54.784Z,4.40
2018-08-19T15:32:24.903Z,4.67
2018-08-19T15:34:53.259Z,4.72
2018-08-19T15:37:22.819Z,4.30
2018-08-19T15:56:32.166Z,5.20
2018-08-19T16:12:56.891Z,7.50
2018-08-19T16:15:26.960Z,7.40
2018-08-19T16:17:56.998Z,8.68
2018-08-19T16:20:26.146Z,7.42
2018-08-19T16:22:56.993Z,9.80
2018-08-19T16:25:25.752Z,8.00
2018-08-19T16:27:55.700Z,6.95
2018-08-19T16:30:24.396Z,7.67
2018-08-19T16:32:53.115Z,8.65
2018-08-19T16:35:23.439Z,8.50
2018-08-19T16:37:52.183Z,8.08
2018-08-19T16:40:20.797Z,7.92
2018-08-19T16:42:49.670Z,8.13
2018-08-19T16:45:18.385Z,7.75
2018-08-19T16:47:47.232Z,8.30
2018-08-19T16:50:15.843Z,7.92
2018-08-19T16:52:45.264Z,9.13
2018-08-19T16:55:13.901Z,8.20
2018-08-19T16:57:42.647Z,7.78
2018-08-19T17:00:11.393Z,7.97
2018-08-19T17:02:40.933Z,6.75
2018-08-19T17:05:20.836Z,7.75
2018-08-19T17:07:49.632Z,7.70
2018-08-19T17:10:25.587Z,7.50
2018-08-19T17:12:54.117Z,7.15
2018-08-19T17:15:22.826Z,8.25
2018-08-19T17:17:51.376Z,7.37
2018-08-19T17:20:19.822Z,5.78
2018-08-19T17:22:48.858Z,6.15
2018-08-19T17:25:17.432Z,5.72
2018-08-19T17:27:45.986Z,5.75
2018-08-19T17:30:27.029Z,5.30
2018-08-19T17:33:05.778Z,3.77
2018-08-19T17:35:34.670Z,4.45
2018-08-19T17:38:03.234Z,4.75
2018-08-19T17:40:33.450Z,4.40
2018-08-19T17:43:06.817Z,4.35
2018-08-19T17:45:35.564Z,4.05
2018-08-19T17:48:05.468Z,3.00
2018-08-19T17:50:41.249Z,2.55
2018-08-19T17:53:09.992Z,3.17
2018-08-19T17:55:42.096Z,2.90
2018-08-19T17:58:14.207Z,2.45
2018-08-19T18:00:43.799Z,2.27
2018-08-19T18:03:13.107Z,1.92
2018-08-19T18:05:44.287Z,2.52
2018-08-19T18:08:21.233Z,2.22
2018-08-19T18:11:02.544Z,1.98
2018-08-19T18:13:33.946Z,2.25
2018-08-19T18:16:04.035Z,2.33
2018-08-19T18:18:32.662Z,1.85
2018-08-19T18:21:04.153Z,1.85
2018-08-19T18:23:33.912Z,1.72
2018-08-19T18:26:02.731Z,1.37
2018-08-19T18:28:32.348Z,1.40
2018-08-19T18:33:52.091Z,1.22
2018-08-19T18:36:22.924Z,1.37
2018-08-19T18:38:52.273Z,1.02
2018-08-19T18:41:26.821Z,1.30
2018-08-19T18:43:59.903Z,1.47
2018-08-19T18:46:28.909Z,1.57
2018-08-19T18:49:13.753Z,1.87
2018-08-19T18:51:44.293Z,1.30
2018-08-19T18:54:24.440Z,1.80
2018-08-19T18:56:54.570Z,2.17
2018-08-19T18:59:23.175Z,1.80
2018-08-19T19:01:51.866Z,1.72
2018-08-19T19:04:20.880Z,1.90
2018-08-19T19:06:49.754Z,1.85
2018-08-19T19:09:20.904Z,1.67
2018-08-19T19:11:52.204Z,1.60
2018-08-19T19:14:21.839Z,2.20
2018-08-19T19:16:52.223Z,2.00
2018-08-19T19:19:20.812Z,1.70
2018-08-19T19:21:53.145Z,1.77
2018-08-19T19:24:28.852Z,1.70
2018-08-19T19:26:57.323Z,2.15
2018-08-19T19:29:27.878Z,1.85
2018-08-19T19:31:58.892Z,1.90
2018-08-19T19:34:30.871Z,1.90
2018-08-19T19:37:01.269Z,2.00
2018-08-19T19:39:29.840Z,2.15
2018-08-19T19:42:03.475Z,2.90
2018-08-19T19:44:34.631Z,2.80
2018-08-19T19:47:04.027Z,2.67
2018-08-19T19:49:33.958Z,2.10
2018-08-19T19:52:03.976Z,2.17
2018-08-19T19:54:36.197Z,2.72
2018-08-19T19:57:04.692Z,2.30
2018-08-19T19:59:34.464Z,2.10
2018-08-19T20:02:03.479Z,2.42
2018-08-19T20:04:37.272Z,2.75
2018-08-19T20:07:06.420Z,2.60
2018-08-19T20:09:37.204Z,2.40
2018-08-19T20:12:08.242Z,2.30
2018-08-19T20:14:40.991Z,3.10
2018-08-19T20:17:09.474Z,2.55
2018-08-19T20:19:37.876Z,1.90
2018-08-19T20:22:13.195Z,2.15
2018-08-19T20:24:41.709Z,2.40
2018-08-19T20:27:11.215Z,2.35
2018-08-19T20:29:41.662Z,1.87
2018-08-19T20:32:11.186Z,2.20
2018-08-19T20:34:39.894Z,2.02
2018-08-19T20:37:10.338Z,2.33
2018-08-19T20:39:40.304Z,1.98
2018-08-19T20:42:09.430Z,2.02
2018-08-19T20:44:38.308Z,1.85
2018-08-19T20:47:08.570Z,1.60
2018-08-19T20:49:38.077Z,2.50
2018-08-19T20:52:06.705Z,2.40
2018-08-19T20:54:35.527Z,2.90
2018-08-19T20:57:04.775Z,2.40
2018-08-19T20:59:37.173Z,2.77
2018-08-19T21:02:07.504Z,3.00
2018-08-19T21:04:36.059Z,2.42
2018-08-19T21:07:07.225Z,1.85
2018-08-19T21:09:36.391Z,1.98
2018-08-19T21:12:05.900Z,1.87
2018-08-19T21:14:34.614Z,2.42
2018-08-19T21:17:04.708Z,1.85
2018-08-19T21:19:33.841Z,2.15
2018-08-19T21:22:02.411Z,2.27
2018-08-19T21:24:32.151Z,2.02
2018-08-19T21:27:02.494Z,1.75
2018-08-19T21:29:34.174Z,2.47
2018-08-19T21:32:03.283Z,1.77
2018-08-19T21:34:38.262Z,1.90
2018-08-19T21:37:06.788Z,2.20
2018-08-19T21:39:35.420Z,2.08
2018-08-19T21:42:04.030Z,2.08
2018-08-19T21:44:32.650Z,2.40
2018-08-19T21:47:01.150Z,2.22
2018-08-19T21:49:29.681Z,2.02
2018-08-19T21:51:58.137Z,2.22
2018-08-19T21:54:28.490Z,1.92
2018-08-19T21:56:57.775Z,2.25
2018-08-19T21:59:26.409Z,2.27
2018-08-19T22:01:57.870Z,1.90
2018-08-19T22:04:26.631Z,2.20
2018-08-19T22:06:55.324Z,1.80
2018-08-19T22:09:30.437Z,2.35
2018-08-19T22:12:00.509Z,2.35
2018-08-19T22:14:29.363Z,2.37
2018-08-19T22:17:12.506Z,2.25
2018-08-19T22:22:24.236Z,2.30
2018-08-19T22:24:52.799Z,2.10
2018-08-19T22:27:22.048Z,2.25
2018-08-19T22:29:50.485Z,3.33
2018-08-19T22:32:19.247Z,2.33
2018-08-19T22:34:47.807Z,2.40
2018-08-19T22:37:16.429Z,3.10
2018-08-19T22:39:46.365Z,2.98
2018-08-19T22:42:14.738Z,3.10
2018-08-19T22:44:43.166Z,3.75
2018-08-19T22:47:11.615Z,3.05
2018-08-19T22:49:40.031Z,3.27
2018-08-19T22:52:19.825Z,3.52
2018-08-19T22:54:50.066Z,3.50
2018-08-19T22:57:18.509Z,3.65
2018-08-19T22:59:46.962Z,3.33
2018-08-19T23:02:17.500Z,2.50
2018-08-19T23:04:46.645Z,3.35
2018-08-19T23:07:15.173Z,3.20
2018-08-19T23:09:43.571Z,3.52
2018-08-19T23:12:12.035Z,3.02
2018-08-19T23:14:51.630Z,3.30
2018-08-19T23:17:20.028Z,3.58
2018-08-19T23:19:49.557Z,3.37
2018-08-19T23:22:18.188Z,3.30
2018-08-19T23:24:46.944Z,3.50
2018-08-19T23:27:15.458Z,3.40
2018-08-19T23:29:43.895Z,3.90
2018-08-19T23:32:12.312Z,3.25
2018-08-19T23:34:40.875Z,3.10
2018-08-19T23:37:09.319Z,3.77
2018-08-19T23:39:37.765Z,3.40
2018-08-19T23:42:06.216Z,3.05
2018-08-19T23:44:34.648Z,4.67
2018-08-19T23:47:03.086Z,4.10
2018-08-19T23:49:31.574Z,4.47
2018-08-19T23:51:59.999Z,4.35
2018-08-19T23:54:28.455Z,4.35
2018-08-19T23:56:56.882Z,3.33
2018-08-19T23:59:31.509Z,4.60
